Hlavní strana
METAR-TAF:

METAR-TAF

Letiště :

Bad Vöslau, Rakousko

zeměpisná šířka: 47-57-52N, zeměpisná délka: 016-15-34E, výška: 233 m

Aktuální stav počasí

Zpráva byla vytvořena před 47 minutami, v 14:00 UTC
Západoseverozápadní vítr 20 kt
Teplota 29°C
Vlhkost vzduchu 33%
Tlak
Viditelnost 10 km a více
Žádná oblačnost pod 1500 m, nevyskytují se cumulonimby.

METAR: LOAV 141400Z 30020KT CAVOK 29/11

Čas: 16:47 (14:47 UTC)

Předpověď počasí

Zpráva byla vytvořena před 3 hodinami a 32 minutami, v 11:15 UTC
Předpověď platná od 14 v 12 UTC do 14 v 21 UTC
Západní vítr 12 kt
Viditelnost 10 km a více
Žádná oblačnost pod 1500 m, nevyskytují se cumulonimby.
Dočasný
od 14 v 12 UTC do 14 v 16 UTC
Západní vítr 17 kt s nárazy do 27 kt

TAF: LOAV 141115Z 1412/1421 28012KT CAVOK TEMPO 1412/1416 28017G27KT

Stav a předpovědi počasí z více než 4 000 letišť (zprávy METAR a TAF).

Červené a žluté tečky na mapě představují dostupné meteorologické stanice.

Když kurzor umístíte na tečku, zobrazí se název stanice.

Pak kliknutím zobrazíte stav a předpověď počasí.

Chcete-li změnit mapu, kliknutím na zelené tlačítko se znaménkem +mapu přiblížíte, kliknutím na zelené tlačítko se znaménkem – mapu oddálíte a kliknutím na zelené šipky přejdete na sousední mapy.


METAR-TAF: